Time;durP1;ratioP1;P1;durP2;ratioP2;P2;SDS_P1;SDS_P2;PMS_P1;PMS_P2;Temp;Humidity;BMP_temperature;BMP_pressure;BME280_temperature;BME280_humidity;BME280_pressure;Samples;Min_cycle;Max_cycle;Signal;HPM_P1;HPM_P2
2022/08/31 00:04:00;;;;;;;11.23;10.23;;;;;;;19.47;75.23;94942.50;5054152;28;20194;-75
2022/08/31 00:06:27;;;;;;;11.50;10.50;;;;;;;19.44;75.44;94943.31;5054839;28;20591;-75
2022/08/31 00:08:54;;;;;;;11.98;10.88;;;;;;;19.39;75.64;94943.78;5055272;28;20212;-75
2022/08/31 00:11:27;;;;;;;10.93;10.05;;;;;;;19.37;75.64;94951.00;5054504;28;20201;-76
2022/08/31 00:13:55;;;;;;;11.40;10.40;;;;;;;19.36;75.79;94957.81;5054081;28;20239;-75
2022/08/31 00:16:24;;;;;;;11.32;10.43;;;;;;;19.35;76.12;94956.19;5054939;28;20586;-76
2022/08/31 00:18:52;;;;;;;11.02;10.13;;;;;;;19.33;75.82;94951.03;5054661;28;20190;-75
2022/08/31 00:21:20;;;;;;;11.25;10.35;;;;;;;19.36;75.90;94946.63;5054631;28;20652;-75
2022/08/31 00:23:48;;;;;;;11.00;10.02;;;;;;;19.37;75.98;94948.19;5054908;28;20198;-73
2022/08/31 00:26:15;;;;;;;11.48;10.30;;;;;;;19.36;76.07;94946.63;5061196;28;20225;-72
2022/08/31 00:28:43;;;;;;;11.65;10.55;;;;;;;19.32;75.46;94945.81;5064404;28;20198;-72
2022/08/31 00:31:10;;;;;;;11.75;10.07;;;;;;;19.29;76.02;94941.09;5063885;28;20292;-72
2022/08/31 00:33:39;;;;;;;11.25;10.18;;;;;;;19.30;75.91;94946.25;5063742;28;20206;-72
2022/08/31 00:36:08;;;;;;;11.02;10.00;;;;;;;19.29;75.96;94941.09;5063898;28;20205;-72
2022/08/31 00:38:35;;;;;;;11.75;10.00;;;;;;;19.27;75.72;94947.06;5064654;28;20293;-72
2022/08/31 00:41:03;;;;;;;10.40;9.40;;;;;;;19.26;75.64;94948.28;5063156;28;20269;-73
2022/08/31 00:43:39;;;;;;;10.48;9.30;;;;;;;19.22;75.17;94948.31;5061436;28;20208;-72
2022/08/31 00:46:07;;;;;;;10.77;9.73;;;;;;;19.19;75.50;94954.72;5060735;28;20218;-72
2022/08/31 00:48:34;;;;;;;10.27;9.38;;;;;;;19.20;75.29;94955.50;5060492;28;20197;-72
2022/08/31 00:51:03;;;;;;;10.43;9.60;;;;;;;19.20;75.46;94947.91;5061221;28;20197;-72
2022/08/31 00:53:31;;;;;;;9.88;9.02;;;;;;;19.21;74.83;94951.53;5061695;28;20197;-72
2022/08/31 00:55:58;;;;;;;11.68;9.50;;;;;;;19.23;74.94;94952.69;5062325;28;20205;-72
2022/08/31 00:58:26;;;;;;;10.40;9.43;;;;;;;19.27;75.32;94954.66;5063350;28;20202;-73
2022/08/31 01:00:53;;;;;;;10.43;9.52;;;;;;;19.27;75.07;94954.66;5058636;28;20197;-72
2022/08/31 01:03:21;;;;;;;10.10;9.05;;;;;;;19.25;74.85;94963.47;5090731;28;20194;-73
2022/08/31 01:05:49;;;;;;;12.27;9.95;;;;;;;19.24;74.72;94959.06;5057407;28;20234;-72
2022/08/31 01:08:18;;;;;;;9.82;9.02;;;;;;;19.22;74.85;94953.13;5057146;28;20206;-72
2022/08/31 01:10:46;;;;;;;10.05;8.80;;;;;;;19.21;74.96;94945.94;5091335;28;20205;-72
2022/08/31 01:13:14;;;;;;;10.25;9.38;;;;;;;19.23;74.90;94949.09;5057648;28;20208;-72
2022/08/31 01:15:46;;;;;;;9.80;8.90;;;;;;;19.23;75.18;94957.50;5058689;28;20225;-72
2022/08/31 01:18:13;;;;;;;9.70;8.88;;;;;;;19.20;74.96;94953.50;5059005;28;20185;-74
2022/08/31 01:20:47;;;;;;;10.20;9.27;;;;;;;19.18;75.27;94957.94;5061204;28;20186;-74
2022/08/31 01:23:19;;;;;;;9.52;8.73;;;;;;;19.19;75.46;94956.72;5064116;28;20213;-74
2022/08/31 01:25:47;;;;;;;9.90;9.00;;;;;;;19.22;75.19;94961.50;5058049;28;20208;-74
2022/08/31 01:28:15;;;;;;;10.05;9.15;;;;;;;19.24;75.44;94959.06;5077320;28;20292;-74
2022/08/31 01:30:42;;;;;;;9.80;8.93;;;;;;;19.23;75.19;94958.28;5063509;28;20293;-74
2022/08/31 01:33:10;;;;;;;9.88;8.98;;;;;;;19.23;75.48;94957.50;5064957;28;20586;-74
2022/08/31 01:35:37;;;;;;;10.88;9.45;;;;;;;19.22;75.59;94961.50;5064924;28;20220;-74
2022/08/31 01:38:04;;;;;;;11.40;9.13;;;;;;;19.19;75.32;94954.72;5061370;28;20596;-74
2022/08/31 01:40:34;;;;;;;10.27;9.25;;;;;;;19.22;75.43;94955.91;5059205;28;20182;-74
2022/08/31 01:43:01;;;;;;;10.65;9.65;;;;;;;19.23;75.39;94951.91;5060096;28;20190;-74
2022/08/31 01:45:28;;;;;;;9.48;8.68;;;;;;;19.21;75.55;94952.31;5064316;28;20190;-74
2022/08/31 01:47:55;;;;;;;10.63;9.63;;;;;;;19.21;75.82;94952.31;5097139;28;20213;-74
2022/08/31 01:50:22;;;;;;;10.20;9.30;;;;;;;19.21;75.41;94960.72;5062056;28;20197;-74
2022/08/31 01:52:49;;;;;;;10.18;9.20;;;;;;;19.18;75.70;94958.72;5065150;28;20292;-73
2022/08/31 01:55:16;;;;;;;10.25;9.27;;;;;;;19.18;75.49;94952.34;5064470;28;20296;-74
2022/08/31 01:57:48;;;;;;;10.10;9.10;;;;;;;19.17;75.65;94950.75;5066906;28;20257;-73
2022/08/31 02:00:15;;;;;;;10.30;9.45;;;;;;;19.14;75.55;94949.59;5064516;28;20262;-74
2022/08/31 02:02:42;;;;;;;10.93;9.73;;;;;;;19.13;75.88;94952.78;5062571;28;20637;-74
2022/08/31 02:05:13;;;;;;;9.93;9.07;;;;;;;19.14;76.18;94951.59;5059375;28;20240;-74
2022/08/31 02:07:40;;;;;;;10.10;8.98;;;;;;;19.15;75.74;94953.16;5091620;28;20205;-74
2022/08/31 02:10:07;;;;;;;10.20;9.13;;;;;;;19.12;76.34;94957.56;5058105;28;20205;-74
2022/08/31 02:12:34;;;;;;;9.80;8.85;;;;;;;19.13;76.30;94952.78;5057213;28;20197;-74
2022/08/31 02:15:03;;;;;;;11.27;8.93;;;;;;;19.08;75.87;94945.63;5064246;28;20209;-74
2022/08/31 02:17:30;;;;;;;10.10;8.75;;;;;;;19.06;76.08;94945.22;5066090;28;20308;-74
2022/08/31 02:19:57;;;;;;;11.02;9.82;;;;;;;19.05;76.45;94952.03;5066020;28;20233;-74
2022/08/31 02:22:24;;;;;;;10.82;9.80;;;;;;;19.03;76.75;94954.47;5063432;28;20204;-73
2022/08/31 02:24:51;;;;;;;11.85;9.52;;;;;;;19.04;76.39;94952.44;5059961;28;20236;-73
2022/08/31 02:27:18;;;;;;;10.48;9.43;;;;;;;19.02;76.21;94954.84;5063395;28;20197;-73
2022/08/31 02:29:45;;;;;;;10.35;9.35;;;;;;;18.97;76.38;94956.09;5092374;28;20244;-74
2022/08/31 02:32:13;;;;;;;10.10;9.00;;;;;;;18.93;76.50;94950.53;5060613;28;20204;-74
2022/08/31 02:34:40;;;;;;;9.32;8.52;;;;;;;18.91;76.53;94952.91;5062062;28;20498;-74
2022/08/31 02:37:08;;;;;;;10.35;9.45;;;;;;;18.88;76.96;94952.94;5060609;28;20210;-74
2022/08/31 02:39:34;;;;;;;10.25;9.25;;;;;;;18.86;77.19;94950.56;5059906;28;20201;-74
2022/08/31 02:42:01;;;;;;;9.98;9.13;;;;;;;18.84;76.93;94950.16;5059650;28;20194;-74
2022/08/31 02:44:28;;;;;;;9.68;8.70;;;;;;;18.85;77.48;94953.78;5061201;28;20494;-74
2022/08/31 02:46:55;;;;;;;13.52;11.13;;;;;;;18.85;77.51;94951.78;5044291;28;20201;-74
2022/08/31 02:49:26;;;;;;;11.43;10.20;;;;;;;18.83;77.28;94945.00;5058709;28;20202;-74
2022/08/31 02:51:52;;;;;;;10.43;9.40;;;;;;;18.80;76.99;94937.44;5060803;28;20225;-74
2022/08/31 02:54:19;;;;;;;10.18;9.23;;;;;;;18.76;76.85;94937.47;5060265;28;20209;-74
2022/08/31 02:56:46;;;;;;;9.95;8.95;;;;;;;18.76;77.01;94938.25;5093954;28;20555;-74
2022/08/31 02:59:13;;;;;;;10.15;9.25;;;;;;;18.75;77.05;94941.47;5063182;28;20202;-73
2022/08/31 03:01:40;;;;;;;9.88;8.98;;;;;;;18.73;76.73;94941.84;5063827;28;20296;-73
2022/08/31 03:04:08;;;;;;;9.90;9.00;;;;;;;18.70;76.59;94939.88;5092814;28;20205;-73
2022/08/31 03:06:36;;;;;;;10.23;9.20;;;;;;;18.67;76.95;94940.69;5056466;28;20233;-74
2022/08/31 03:09:03;;;;;;;10.55;9.43;;;;;;;18.65;76.87;94943.09;5057213;28;20236;-74
2022/08/31 03:11:30;;;;;;;10.50;8.85;;;;;;;18.64;76.93;94940.72;5056542;28;20201;-74
2022/08/31 03:13:57;;;;;;;14.40;10.20;;;;;;;18.64;77.01;94957.47;5058602;28;20516;-74
2022/08/31 03:16:24;;;;;;;9.50;8.60;;;;;;;18.63;77.05;94944.72;5055812;28;20227;-74
2022/08/31 03:18:51;;;;;;;10.50;9.40;;;;;;;18.60;76.78;94948.31;5057813;28;20210;-74
2022/08/31 03:21:18;;;;;;;10.90;9.65;;;;;;;18.58;76.82;94945.91;5059451;28;20273;-73
2022/08/31 03:23:46;;;;;;;11.60;10.30;;;;;;;18.56;76.47;94941.97;5055690;28;20550;-73
2022/08/31 03:26:13;;;;;;;10.15;8.90;;;;;;;18.49;76.63;94946.38;5057398;28;20189;-73
2022/08/31 03:28:40;;;;;;;11.15;9.55;;;;;;;18.49;77.07;94940.00;5057090;28;20200;-73
2022/08/31 03:31:08;;;;;;;10.80;9.38;;;;;;;18.49;76.92;94948.38;5056029;28;20222;-73
2022/08/31 03:33:35;;;;;;;10.75;9.65;;;;;;;18.47;77.04;94937.59;5056773;28;20547;-73
2022/08/31 03:36:03;;;;;;;10.77;9.68;;;;;;;18.44;77.32;94935.63;5057666;28;20228;-73
2022/08/31 03:38:30;;;;;;;11.13;9.88;;;;;;;18.47;77.40;94940.38;5058437;28;20626;-72
2022/08/31 03:40:58;;;;;;;11.43;10.35;;;;;;;18.45;76.92;94940.00;5058203;28;20252;-72
2022/08/31 03:43:25;;;;;;;14.20;9.93;;;;;;;18.46;77.25;94944.38;5057928;28;20205;-72
2022/08/31 03:45:52;;;;;;;11.52;9.43;;;;;;;18.45;77.11;94939.22;5057864;28;20202;-72
2022/08/31 03:48:19;;;;;;;10.70;9.48;;;;;;;18.41;76.71;94942.03;5058277;28;20206;-73
2022/08/31 03:50:46;;;;;;;11.65;10.45;;;;;;;18.36;77.78;94944.44;5058542;28;20200;-73
2022/08/31 03:53:13;;;;;;;11.77;9.98;;;;;;;18.37;77.46;94948.81;5055793;28;20227;-74
2022/08/31 03:55:42;;;;;;;11.02;9.90;;;;;;;18.39;77.25;94952.81;5054730;28;20198;-75
2022/08/31 03:58:11;;;;;;;10.30;9.32;;;;;;;18.37;77.49;94952.41;5054643;28;20228;-73
2022/08/31 04:00:39;;;;;;;11.90;10.90;;;;;;;18.37;77.61;94949.59;5054712;28;20599;-75
2022/08/31 04:03:06;;;;;;;15.43;11.23;;;;;;;18.38;77.90;94953.22;5055002;28;20594;-75
2022/08/31 04:05:35;;;;;;;12.23;11.02;;;;;;;18.40;77.58;94954.38;5054425;28;20226;-75
2022/08/31 04:08:02;;;;;;;12.10;10.93;;;;;;;18.41;77.53;94947.63;5056097;28;20193;-73
2022/08/31 04:10:29;;;;;;;10.73;9.63;;;;;;;18.42;77.17;94956.78;5059671;28;20269;-76
2022/08/31 04:12:56;;;;;;;11.98;10.80;;;;;;;18.45;76.80;94958.78;5057835;28;20194;-75
2022/08/31 04:15:24;;;;;;;10.68;9.57;;;;;;;18.48;76.27;94946.75;5055139;28;20197;-76
2022/08/31 04:17:51;;;;;;;10.63;9.52;;;;;;;18.51;75.68;94951.53;5055553;28;20232;-75
2022/08/31 04:20:18;;;;;;;10.15;9.25;;;;;;;18.49;75.59;94946.38;5055255;28;20202;-75
2022/08/31 04:22:45;;;;;;;9.80;9.00;;;;;;;18.47;75.76;94951.56;5057407;28;20539;-75
2022/08/31 04:25:12;;;;;;;10.50;9.50;;;;;;;18.48;75.47;94952.34;5058231;28;20189;-75
2022/08/31 04:27:39;;;;;;;10.20;9.20;;;;;;;18.50;75.11;94953.53;5058625;28;20555;-75
2022/08/31 04:30:09;;;;;;;9.68;8.88;;;;;;;18.47;75.65;94950.78;5056679;28;20200;-75
2022/08/31 04:32:37;;;;;;;10.82;9.75;;;;;;;18.48;75.57;94946.75;5057306;28;20209;-72
2022/08/31 04:35:04;;;;;;;10.50;9.40;;;;;;;18.50;75.36;94944.38;5059640;28;20193;-73
2022/08/31 04:37:31;;;;;;;11.88;10.77;;;;;;;18.52;75.00;94950.34;5055887;28;20225;-74
2022/08/31 04:40:00;;;;;;;10.75;9.57;;;;;;;18.52;74.82;94945.56;5054790;28;20190;-73
2022/08/31 04:42:30;;;;;;;11.07;9.95;;;;;;;18.54;75.24;94942.34;5055907;28;20193;-70
2022/08/31 04:44:57;;;;;;;10.70;9.77;;;;;;;18.55;75.12;94951.53;5054739;28;20296;-70
2022/08/31 04:47:23;;;;;;;13.15;9.95;;;;;;;18.57;74.98;94949.91;5053807;28;20194;-70
2022/08/31 04:49:52;;;;;;;11.10;9.90;;;;;;;18.57;75.42;94954.72;5054942;28;20190;-72
2022/08/31 04:52:18;;;;;;;11.63;10.38;;;;;;;18.54;75.49;94959.09;5054675;28;20186;-72
2022/08/31 04:54:45;;;;;;;11.23;10.10;;;;;;;18.53;75.46;94951.94;5055045;28;20197;-72
2022/08/31 04:57:13;;;;;;;11.05;9.98;;;;;;;18.51;75.81;94965.50;5054370;28;20225;-74
2022/08/31 04:59:40;;;;;;;10.95;9.90;;;;;;;18.48;75.92;94949.56;5054314;28;20205;-72
2022/08/31 05:02:07;;;;;;;11.70;10.65;;;;;;;18.48;76.00;94947.59;5053914;28;20581;-72
2022/08/31 05:04:34;;;;;;;11.35;10.07;;;;;;;18.49;76.12;94945.59;5054398;28;20205;-74
2022/08/31 05:07:05;;;;;;;11.70;10.60;;;;;;;18.50;76.25;94949.97;5053402;28;20657;-74
2022/08/31 05:09:32;;;;;;;11.43;10.48;;;;;;;18.56;76.48;94950.34;5054193;28;20190;-70
2022/08/31 05:11:58;;;;;;;11.15;10.05;;;;;;;18.61;75.89;94947.91;5053987;28;20212;-72
2022/08/31 05:14:25;;;;;;;11.00;10.05;;;;;;;18.67;76.07;94942.69;5053778;28;20209;-74
2022/08/31 05:16:52;;;;;;;12.75;10.98;;;;;;;18.70;75.92;94942.66;5054593;28;20217;-73
2022/08/31 05:19:20;;;;;;;11.07;9.80;;;;;;;18.76;75.74;94946.63;5057931;28;20542;-74
2022/08/31 05:21:47;;;;;;;13.00;10.48;;;;;;;18.79;75.37;94941.44;5057536;28;20190;-74
2022/08/31 05:24:19;;;;;;;13.18;10.73;;;;;;;18.80;75.56;94943.03;5057479;28;20201;-73
2022/08/31 05:26:49;;;;;;;12.25;10.40;;;;;;;18.84;75.44;94944.59;5057517;28;20244;-74
2022/08/31 05:29:17;;;;;;;11.57;10.45;;;;;;;18.89;75.44;94946.97;5059134;28;20204;-73
2022/08/31 05:31:44;;;;;;;11.65;10.57;;;;;;;18.89;74.71;94937.78;5058356;28;20624;-74
2022/08/31 05:34:13;;;;;;;11.20;10.10;;;;;;;18.90;74.89;94942.16;5057531;28;20205;-75
2022/08/31 05:36:41;;;;;;;11.90;10.77;;;;;;;18.88;74.79;94937.00;5057119;28;20559;-74
2022/08/31 05:39:10;;;;;;;12.82;11.63;;;;;;;18.89;75.45;94938.59;5057243;28;20198;-74
2022/08/31 05:41:39;;;;;;;12.38;10.95;;;;;;;18.88;75.79;94936.19;5057030;28;20614;-74
2022/08/31 05:44:06;;;;;;;12.40;11.15;;;;;;;18.89;75.78;94929.41;5057250;28;20205;-75
2022/08/31 05:46:33;;;;;;;11.27;10.10;;;;;;;18.90;75.78;94934.56;5058090;28;20182;-75
2022/08/31 05:49:00;;;;;;;12.48;11.30;;;;;;;18.92;75.97;94925.78;5057117;28;20614;-75
2022/08/31 05:51:27;;;;;;;12.23;10.98;;;;;;;18.95;75.66;94920.19;5058021;28;20193;-74
2022/08/31 05:53:54;;;;;;;12.02;10.85;;;;;;;19.00;76.43;94927.31;5057040;28;20198;-73
2022/08/31 05:56:24;;;;;;;12.45;11.15;;;;;;;19.05;75.99;94926.88;5057900;28;20186;-73
2022/08/31 05:58:53;;;;;;;12.85;11.38;;;;;;;19.14;75.84;94921.63;5056776;28;20209;-74
2022/08/31 06:01:22;;;;;;;13.10;11.85;;;;;;;19.20;75.72;94925.56;5056741;28;20293;-72
2022/08/31 06:03:49;;;;;;;14.10;12.68;;;;;;;19.23;75.40;94915.56;5056845;28;20202;-73
2022/08/31 06:06:17;;;;;;;14.43;12.02;;;;;;;19.28;74.94;94915.13;5056601;28;20237;-74
2022/08/31 06:08:44;;;;;;;13.07;11.82;;;;;;;19.34;75.59;94921.06;5057408;28;20178;-74
2022/08/31 06:11:17;;;;;;;15.73;12.10;;;;;;;19.39;75.57;94915.00;5056759;28;20641;-73
2022/08/31 06:13:44;;;;;;;12.88;11.60;;;;;;;19.45;75.70;94916.94;5056344;28;20633;-74
2022/08/31 06:16:12;;;;;;;12.45;11.23;;;;;;;19.53;75.16;94919.66;5056225;28;20216;-74
2022/08/31 06:18:49;;;;;;;12.57;11.45;;;;;;;19.61;74.92;94916.41;5057045;28;20214;-74
2022/08/31 06:21:19;;;;;;;12.40;11.20;;;;;;;19.68;74.88;94905.19;5056519;28;20227;-74
2022/08/31 06:23:47;;;;;;;13.70;11.57;;;;;;;19.72;74.58;94907.94;5057668;28;20190;-73
2022/08/31 06:26:15;;;;;;;12.05;10.48;;;;;;;19.75;75.55;94907.06;5056506;28;20204;-75
2022/08/31 06:28:43;;;;;;;12.15;10.95;;;;;;;19.79;74.60;94905.06;5055368;28;20204;-74
2022/08/31 06:31:15;;;;;;;10.57;9.55;;;;;;;19.82;74.34;94909.81;5056524;28;20193;-74
2022/08/31 06:33:42;;;;;;;9.75;8.82;;;;;;;19.85;74.05;94911.75;5056554;28;20289;-74
2022/08/31 06:36:11;;;;;;;9.68;8.77;;;;;;;19.90;74.20;94913.34;5056453;28;20210;-73
2022/08/31 06:38:39;;;;;;;9.85;8.88;;;;;;;19.92;74.27;94908.88;5056241;28;20224;-73
2022/08/31 06:41:16;;;;;;;10.13;9.13;;;;;;;19.95;73.90;94912.88;5056939;28;20606;-73
2022/08/31 06:43:43;;;;;;;10.07;9.18;;;;;;;19.98;73.83;94917.63;5056188;28;20197;-72
2022/08/31 06:46:11;;;;;;;9.93;9.02;;;;;;;20.04;73.86;94918.75;5056621;28;20552;-73
2022/08/31 06:48:41;;;;;;;10.20;9.18;;;;;;;20.09;73.88;94923.91;5055931;28;20541;-72
2022/08/31 06:51:09;;;;;;;10.38;9.30;;;;;;;20.12;73.83;94922.28;5056171;28;20198;-73
2022/08/31 06:53:39;;;;;;;10.18;9.20;;;;;;;20.16;73.89;94923.03;5056636;28;20193;-73
2022/08/31 06:56:07;;;;;;;10.68;9.80;;;;;;;20.20;73.05;94924.56;5056768;28;20189;-73
2022/08/31 06:58:35;;;;;;;11.63;10.02;;;;;;;20.26;73.07;94924.91;5056396;28;20210;-72
2022/08/31 07:01:05;;;;;;;10.70;9.65;;;;;;;20.31;72.93;94924.44;5056043;28;20223;-72
2022/08/31 07:03:36;;;;;;;10.52;9.63;;;;;;;20.35;72.97;94927.97;5055540;28;20206;-72
2022/08/31 07:06:11;;;;;;;11.00;9.90;;;;;;;20.38;73.17;94923.56;5055266;28;20265;-73
2022/08/31 07:08:39;;;;;;;10.82;9.57;;;;;;;20.43;72.62;94918.25;5055736;28;20201;-73
2022/08/31 07:11:11;;;;;;;11.35;10.25;;;;;;;20.49;72.99;94918.59;5057066;28;20185;-73
2022/08/31 07:13:38;;;;;;;10.25;9.35;;;;;;;20.54;73.16;94918.16;5055666;28;20208;-73
2022/08/31 07:16:06;;;;;;;10.80;9.70;;;;;;;20.57;73.05;94914.50;5056653;28;20190;-73
2022/08/31 07:18:33;;;;;;;12.68;10.43;;;;;;;20.61;73.04;94922.88;5056242;28;20217;-74
2022/08/31 07:21:13;;;;;;;10.50;9.10;;;;;;;20.66;72.92;94925.19;5055824;28;20205;-73
2022/08/31 07:23:40;;;;;;;10.77;9.88;;;;;;;20.74;72.29;94920.28;5055379;28;20212;-73
2022/08/31 07:26:08;;;;;;;9.50;8.60;;;;;;;20.78;72.01;94923.84;5088829;28;20211;-73
2022/08/31 07:28:37;;;;;;;9.55;8.75;;;;;;;20.88;71.59;94929.28;5057127;28;20190;-72
2022/08/31 07:31:05;;;;;;;10.00;9.15;;;;;;;20.96;71.57;94929.97;5055737;28;20212;-71
2022/08/31 07:33:37;;;;;;;9.20;8.45;;;;;;;21.03;71.08;94924.25;5055342;28;20200;-70
2022/08/31 07:36:09;;;;;;;8.52;7.82;;;;;;;21.08;70.80;94932.19;5055055;28;20240;-69
2022/08/31 07:44:18;;;;;;;11.02;8.90;;;;;;;21.23;70.58;94915.13;5053725;28;20198;-72
2022/08/31 07:46:45;;;;;;;10.75;9.73;;;;;;;21.28;70.50;94917.44;5054631;28;20190;-72
2022/08/31 07:49:12;;;;;;;9.68;8.85;;;;;;;21.31;70.44;94914.56;5054731;28;20208;-72
2022/08/31 07:51:42;;;;;;;9.85;8.70;;;;;;;21.43;69.27;94910.41;5055800;28;20205;-71
2022/08/31 07:54:10;;;;;;;9.57;8.68;;;;;;;21.54;69.49;94911.00;5059964;28;20204;-72
2022/08/31 07:56:37;;;;;;;10.32;9.43;;;;;;;21.60;70.21;94906.47;5058491;28;20300;-73
2022/08/31 07:59:06;;;;;;;9.68;8.77;;;;;;;21.65;69.47;94908.03;5054701;28;20221;-72
2022/08/31 08:01:33;;;;;;;9.18;8.38;;;;;;;21.71;68.88;94905.50;5055325;28;20629;-72
2022/08/31 08:04:00;;;;;;;9.65;8.85;;;;;;;21.80;68.72;94911.34;5055066;28;20205;-72
2022/08/31 08:06:28;;;;;;;9.90;8.95;;;;;;;21.85;68.42;94911.63;5055624;28;20242;-72
2022/08/31 08:09:05;;;;;;;10.77;9.68;;;;;;;21.83;68.34;94904.88;5055730;28;20182;-73
2022/08/31 08:11:36;;;;;;;10.90;9.90;;;;;;;21.87;68.20;94900.00;5055892;28;20194;-72
2022/08/31 08:14:04;;;;;;;10.00;9.10;;;;;;;21.91;67.93;94909.13;5054792;28;20202;-72
2022/08/31 08:16:31;;;;;;;10.32;9.43;;;;;;;22.00;68.12;94897.31;5055105;28;20236;-73
2022/08/31 08:18:58;;;;;;;10.68;9.65;;;;;;;22.07;68.66;94905.59;5055508;28;20225;-72
2022/08/31 08:21:25;;;;;;;11.07;9.98;;;;;;;22.13;68.93;94897.47;5055733;28;20182;-70
2022/08/31 08:23:52;;;;;;;9.82;9.00;;;;;;;22.15;67.73;94898.69;5054318;28;20202;-71
2022/08/31 08:26:19;;;;;;;10.05;9.10;;;;;;;22.23;67.03;94900.09;5054391;28;20194;-72
2022/08/31 08:28:47;;;;;;;9.95;8.95;;;;;;;22.29;67.29;94892.72;5055655;28;20181;-71
2022/08/31 08:31:18;;;;;;;9.32;8.35;;;;;;;22.40;66.18;94898.13;5055372;28;20192;-72
2022/08/31 08:33:45;;;;;;;10.55;9.50;;;;;;;22.55;66.56;94905.06;5058024;28;20182;-72
2022/08/31 08:36:16;;;;;;;10.48;9.48;;;;;;;22.68;66.09;94898.75;5054690;28;20194;-72
2022/08/31 08:38:46;;;;;;;9.65;8.73;;;;;;;22.76;65.80;94894.53;5055650;28;20233;-72
2022/08/31 08:41:17;;;;;;;10.10;9.27;;;;;;;22.74;65.73;94895.00;5055968;28;20198;-73
2022/08/31 08:43:48;;;;;;;10.05;9.05;;;;;;;22.74;65.59;94891.38;5055852;28;20205;-72
2022/08/31 08:46:16;;;;;;;9.90;9.00;;;;;;;22.80;65.43;94889.63;5056280;28;20185;-72
2022/08/31 08:48:45;;;;;;;10.40;9.40;;;;;;;22.83;66.35;94891.56;5056691;28;20205;-72
2022/08/31 08:51:14;;;;;;;11.35;10.05;;;;;;;22.91;64.62;94887.34;5088323;28;20194;-73
2022/08/31 08:53:42;;;;;;;11.18;10.07;;;;;;;22.97;65.04;94887.66;5058776;28;20212;-73
2022/08/31 08:56:11;;;;;;;10.38;9.35;;;;;;;22.99;64.50;94879.59;5060499;28;20190;-73
2022/08/31 08:58:41;;;;;;;11.77;10.73;;;;;;;23.05;65.45;94880.63;5059471;28;20275;-73
2022/08/31 09:01:10;;;;;;;10.13;9.20;;;;;;;23.09;62.69;94866.47;5058649;28;20634;-73
2022/08/31 09:03:48;;;;;;;10.90;9.10;;;;;;;23.12;63.38;94860.78;5058879;28;20216;-72
2022/08/31 09:06:16;;;;;;;10.10;9.10;;;;;;;23.16;64.60;94860.69;5057822;28;20684;-72
2022/08/31 09:09:11;;;;;;;10.32;9.43;;;;;;;23.20;64.27;94859.38;5057946;28;20202;-72
2022/08/31 09:11:45;;;;;;;10.07;9.07;;;;;;;23.23;63.68;94858.47;5044992;28;20209;-71
2022/08/31 09:14:19;;;;;;;10.80;9.77;;;;;;;23.37;62.28;94854.53;5057834;28;20206;-71
2022/08/31 09:16:55;;;;;;;10.00;9.18;;;;;;;23.48;62.94;94855.03;5058875;28;20200;-72
2022/08/31 09:19:22;;;;;;;10.30;9.40;;;;;;;23.58;62.32;94849.56;5064969;28;20209;-71
2022/08/31 09:21:51;;;;;;;10.98;9.88;;;;;;;23.72;60.99;94844.38;5062712;28;20206;-72
2022/08/31 09:24:20;;;;;;;10.40;9.40;;;;;;;23.72;61.86;94844.38;5064145;28;20194;-73
2022/08/31 09:26:54;;;;;;;10.23;9.15;;;;;;;23.76;61.32;94838.66;5057575;28;20198;-69
2022/08/31 09:29:23;;;;;;;9.75;8.88;;;;;;;23.81;60.85;94842.94;5091383;28;20202;-69
2022/08/31 09:32:01;;;;;;;10.25;9.20;;;;;;;23.81;59.81;94837.31;5057249;28;20630;-69
2022/08/31 09:34:30;;;;;;;10.73;9.65;;;;;;;23.84;60.65;94833.59;5057638;28;20193;-69
2022/08/31 09:37:15;;;;;;;10.15;9.27;;;;;;;23.91;61.29;94842.63;5057087;28;20292;-69
2022/08/31 09:39:46;;;;;;;9.95;9.05;;;;;;;24.05;60.70;94838.63;5057567;28;20218;-69
2022/08/31 09:42:25;;;;;;;9.98;9.07;;;;;;;24.07;60.86;94835.34;5056843;28;20619;-69
2022/08/31 09:44:51;;;;;;;11.90;10.80;;;;;;;24.11;60.62;94834.03;5057006;28;20259;-70
2022/08/31 09:47:41;;;;;;;10.13;9.23;;;;;;;24.19;59.76;94821.31;5057436;28;20193;-70
2022/08/31 09:50:09;;;;;;;10.77;9.80;;;;;;;24.26;60.04;94823.94;5056784;28;20198;-69
2022/08/31 09:55:25;;;;;;;12.35;11.15;;;;;;;24.29;57.99;94801.72;5056816;28;20201;-69
2022/08/31 09:57:57;;;;;;;10.90;9.98;;;;;;;24.33;57.69;94791.13;5056818;28;20288;-71
2022/08/31 10:00:41;;;;;;;10.48;9.50;;;;;;;24.45;59.72;94784.75;5057611;28;20194;-72
2022/08/31 10:03:19;;;;;;;10.75;9.77;;;;;;;24.66;57.45;94786.09;5055897;28;20205;-72
2022/08/31 10:05:49;;;;;;;10.35;9.35;;;;;;;24.74;56.44;94779.00;5056274;28;20244;-72
2022/08/31 10:08:33;;;;;;;11.50;10.32;;;;;;;24.79;57.44;94788.91;5057083;28;20212;-72
2022/08/31 10:11:05;;;;;;;10.27;9.35;;;;;;;24.81;55.51;94792.84;5056419;28;20205;-72
2022/08/31 10:13:36;;;;;;;10.32;9.43;;;;;;;24.88;55.40;94783.38;5056904;28;20190;-72
2022/08/31 10:16:13;;;;;;;10.13;9.23;;;;;;;24.86;56.49;94780.22;5057098;28;20488;-72
2022/08/31 10:18:51;;;;;;;9.50;8.65;;;;;;;24.89;56.59;94782.13;5057677;28;20217;-72
2022/08/31 10:21:25;;;;;;;10.77;9.65;;;;;;;24.94;54.74;94773.88;5057699;28;20273;-73
2022/08/31 10:23:56;;;;;;;9.98;8.98;;;;;;;25.08;54.99;94769.00;5057143;28;20657;-73
2022/08/31 10:26:28;;;;;;;10.77;9.85;;;;;;;25.15;55.81;94768.78;5056219;28;20194;-71
2022/08/31 10:28:59;;;;;;;10.35;9.38;;;;;;;25.17;55.23;94761.47;5056981;28;20182;-72
2022/08/31 10:31:30;;;;;;;10.52;9.60;;;;;;;25.27;55.42;94759.50;5056134;28;20229;-71
2022/08/31 10:36:46;;;;;;;11.10;9.75;;;;;;;25.07;54.64;94765.41;5057127;28;20175;-73
2022/08/31 10:39:22;;;;;;;10.30;9.38;;;;;;;24.83;56.09;94775.47;5055843;28;20217;-73
2022/08/31 10:41:50;;;;;;;11.48;10.27;;;;;;;24.54;55.04;94762.28;5056228;28;20201;-73
2022/08/31 10:44:25;;;;;;;11.55;10.35;;;;;;;24.29;56.10;94770.72;5055816;28;20198;-73
2022/08/31 10:46:53;;;;;;;12.10;10.77;;;;;;;24.09;56.56;94770.91;5056373;28;20269;-73
2022/08/31 10:49:21;;;;;;;11.18;10.07;;;;;;;23.93;56.50;94774.59;5055752;28;20209;-72
2022/08/31 10:51:55;;;;;;;11.05;10.05;;;;;;;23.81;57.31;94778.97;5056166;28;20197;-71
2022/08/31 10:54:28;;;;;;;11.10;10.05;;;;;;;23.71;56.83;94778.03;5056418;28;20198;-70
2022/08/31 10:57:02;;;;;;;11.00;9.57;;;;;;;23.61;57.20;94781.13;5055907;28;20198;-71
2022/08/31 10:59:33;;;;;;;11.90;10.80;;;;;;;23.49;57.08;94786.25;5056013;28;20224;-71
2022/08/31 11:02:21;;;;;;;11.13;9.98;;;;;;;23.39;57.56;94792.19;5056635;28;20178;-71
2022/08/31 11:04:52;;;;;;;10.90;9.90;;;;;;;23.29;57.43;94806.09;5055862;28;20205;-71
2022/08/31 11:07:36;;;;;;;11.63;9.90;;;;;;;23.21;58.13;94818.75;5055214;28;20238;-71
2022/08/31 11:10:18;;;;;;;9.93;9.05;;;;;;;23.13;57.90;94819.38;5056587;28;20197;-71
2022/08/31 11:12:50;;;;;;;10.93;9.82;;;;;;;23.00;57.72;94820.09;5056787;28;20185;-71
2022/08/31 11:15:44;;;;;;;12.25;10.07;;;;;;;22.88;57.79;94834.03;5056261;28;20194;-71
2022/08/31 11:18:34;;;;;;;11.05;10.00;;;;;;;22.77;57.50;94845.53;5056219;28;20190;-72
2022/08/31 11:21:22;;;;;;;11.27;10.25;;;;;;;22.63;57.27;94834.63;5055579;28;20213;-72
2022/08/31 11:24:00;;;;;;;10.98;9.98;;;;;;;22.53;56.41;94833.63;5056037;28;20529;-73
2022/08/31 11:26:51;;;;;;;10.82;9.68;;;;;;;22.41;56.13;94832.31;5055878;28;20202;-71
2022/08/31 11:29:28;;;;;;;11.05;9.82;;;;;;;22.34;56.91;94822.00;5056416;28;20190;-71
2022/08/31 11:31:59;;;;;;;11.18;10.05;;;;;;;22.28;56.95;94820.13;5055326;28;20202;-72
2022/08/31 11:34:29;;;;;;;10.70;9.73;;;;;;;22.26;57.37;94808.53;5055371;28;20288;-71
2022/08/31 11:36:59;;;;;;;10.57;9.60;;;;;;;22.24;57.31;94794.16;5056200;28;20197;-70
2022/08/31 11:39:35;;;;;;;10.50;9.50;;;;;;;22.22;57.33;94797.41;5055087;28;20228;-70
2022/08/31 11:42:05;;;;;;;10.27;9.32;;;;;;;22.18;56.42;94801.50;5054856;28;20197;-70
2022/08/31 11:44:56;;;;;;;11.00;9.90;;;;;;;22.11;56.14;94791.19;5055873;28;20212;-70
2022/08/31 11:47:42;;;;;;;12.02;9.77;;;;;;;22.08;56.05;94778.81;5055149;28;20267;-70
2022/08/31 11:50:41;;;;;;;11.73;10.63;;;;;;;22.09;56.77;94776.78;5054663;28;20197;-72